createdAt,value
2017-05-25T00:02:03.213Z,5.12
2017-05-25T00:04:31.521Z,4.98
2017-05-25T00:06:59.848Z,4.82
2017-05-25T00:09:28.155Z,5.30
2017-05-25T00:11:56.479Z,5.00
2017-05-25T00:14:24.781Z,5.66
2017-05-25T00:16:53.123Z,6.40
2017-05-25T00:19:21.439Z,4.54
2017-05-25T00:21:49.743Z,4.40
2017-05-25T00:24:18.071Z,4.64
2017-05-25T00:26:46.373Z,4.50
2017-05-25T00:29:14.691Z,5.80
2017-05-25T00:31:42.992Z,4.80
2017-05-25T00:34:11.334Z,4.50
2017-05-25T00:36:39.636Z,4.86
2017-05-25T00:39:07.936Z,6.28
2017-05-25T00:41:36.256Z,6.28
2017-05-25T00:44:04.559Z,5.58
2017-05-25T00:46:32.887Z,4.90
2017-05-25T00:49:01.196Z,3.84
2017-05-25T00:51:29.529Z,3.92
2017-05-25T00:53:57.828Z,3.76
2017-05-25T00:56:26.123Z,3.72
2017-05-25T00:58:54.438Z,3.54
2017-05-25T01:01:22.744Z,3.24
2017-05-25T01:03:51.063Z,3.68
2017-05-25T01:06:19.368Z,4.88
2017-05-25T01:08:47.697Z,4.86
2017-05-25T01:11:15.997Z,4.18
2017-05-25T01:13:44.293Z,3.52
2017-05-25T01:16:12.614Z,3.48
2017-05-25T01:18:40.920Z,4.70
2017-05-25T01:21:09.239Z,4.28
2017-05-25T01:23:37.542Z,5.44
2017-05-25T01:26:05.876Z,4.46
2017-05-25T01:28:34.171Z,3.60
2017-05-25T01:31:02.462Z,4.74
2017-05-25T01:33:30.786Z,4.14
2017-05-25T01:35:59.083Z,3.92
2017-05-25T01:38:27.401Z,2.90
2017-05-25T01:40:55.718Z,3.56
2017-05-25T01:43:24.051Z,3.22
2017-05-25T01:45:52.348Z,2.38
2017-05-25T01:48:20.651Z,4.42
2017-05-25T01:50:48.968Z,4.08
2017-05-25T01:53:17.265Z,3.44
2017-05-25T01:55:45.589Z,5.52
2017-05-25T01:58:13.896Z,4.22
2017-05-25T02:00:42.233Z,4.20
2017-05-25T02:03:10.535Z,4.64
2017-05-25T02:05:38.844Z,4.98
2017-05-25T02:08:07.164Z,4.22
2017-05-25T02:10:35.472Z,4.86
2017-05-25T02:13:03.786Z,3.80
2017-05-25T02:15:32.083Z,5.18
2017-05-25T02:18:00.415Z,4.08
2017-05-25T02:20:28.708Z,4.08
2017-05-25T02:22:57.008Z,3.50
2017-05-25T02:25:25.327Z,3.22
2017-05-25T02:27:53.623Z,3.18
2017-05-25T02:30:21.941Z,3.28
2017-05-25T02:32:50.240Z,3.28
2017-05-25T02:35:18.955Z,3.24
2017-05-25T02:37:47.254Z,4.50
2017-05-25T02:40:15.547Z,4.28
2017-05-25T02:42:43.867Z,3.66
2017-05-25T02:45:12.168Z,3.22
2017-05-25T02:47:40.491Z,4.00
2017-05-25T02:50:08.796Z,3.56
2017-05-25T02:52:37.210Z,3.10
2017-05-25T02:55:05.584Z,3.04
2017-05-25T02:57:33.950Z,4.62
2017-05-25T03:00:02.283Z,4.10
2017-05-25T03:02:30.588Z,4.60
2017-05-25T03:04:58.907Z,3.92
2017-05-25T03:07:27.203Z,4.06
2017-05-25T03:09:55.537Z,3.44
2017-05-25T03:12:23.841Z,4.08
2017-05-25T03:14:52.136Z,3.64
2017-05-25T03:17:20.458Z,3.92
2017-05-25T03:19:48.751Z,3.48
2017-05-25T03:22:17.072Z,4.38
2017-05-25T03:24:45.365Z,3.76
2017-05-25T03:27:13.687Z,2.76
2017-05-25T03:29:41.988Z,3.02
2017-05-25T03:32:10.295Z,3.32
2017-05-25T03:34:38.619Z,3.00
2017-05-25T03:37:06.929Z,2.70
2017-05-25T03:39:35.241Z,3.10
2017-05-25T03:42:03.541Z,3.28
2017-05-25T03:44:31.882Z,5.38
2017-05-25T03:47:00.188Z,4.26
2017-05-25T03:49:28.496Z,4.78
2017-05-25T03:51:56.820Z,4.40
2017-05-25T03:54:25.120Z,4.08
2017-05-25T03:56:53.448Z,3.22
2017-05-25T03:59:21.749Z,3.08
2017-05-25T04:01:50.072Z,3.42
2017-05-25T04:04:18.380Z,2.56
2017-05-25T04:06:46.688Z,3.48
2017-05-25T04:09:15.012Z,4.24
2017-05-25T04:11:43.323Z,5.00
2017-05-25T04:14:11.649Z,5.50
2017-05-25T04:16:39.947Z,4.10
2017-05-25T04:19:08.297Z,4.72
2017-05-25T04:21:36.604Z,4.30
2017-05-25T04:24:04.907Z,4.38
2017-05-25T04:26:33.235Z,2.86
2017-05-25T04:29:01.581Z,3.66
2017-05-25T04:31:29.903Z,5.08
2017-05-25T04:33:58.221Z,4.04
2017-05-25T04:36:26.564Z,5.20
2017-05-25T04:38:54.910Z,4.16
2017-05-25T04:41:23.267Z,5.16
2017-05-25T04:43:51.601Z,6.22
2017-05-25T04:46:19.904Z,3.94
2017-05-25T04:48:48.227Z,3.98
2017-05-25T04:51:16.556Z,3.76
2017-05-25T04:53:44.909Z,3.50
2017-05-25T04:56:13.228Z,4.10
2017-05-25T04:58:41.545Z,7.10
2017-05-25T05:01:09.876Z,6.32
2017-05-25T05:03:38.212Z,5.86
2017-05-25T05:06:06.558Z,6.20
2017-05-25T05:08:34.880Z,6.48
2017-05-25T05:11:03.221Z,6.34
2017-05-25T05:13:31.557Z,7.50
2017-05-25T05:15:59.875Z,5.30
2017-05-25T05:18:28.227Z,7.00
2017-05-25T05:20:56.528Z,6.28
2017-05-25T05:23:24.828Z,7.10
2017-05-25T05:25:53.159Z,8.22
2017-05-25T05:28:21.649Z,5.58
2017-05-25T05:30:49.992Z,5.40
2017-05-25T05:33:18.296Z,5.60
2017-05-25T05:35:46.603Z,7.72
2017-05-25T05:38:14.936Z,6.52
2017-05-25T05:40:43.261Z,6.88
2017-05-25T05:43:11.588Z,7.96
2017-05-25T05:45:39.911Z,8.58
2017-05-25T05:48:08.262Z,9.00
2017-05-25T05:50:36.572Z,7.30
2017-05-25T05:53:04.889Z,5.10
2017-05-25T05:55:33.238Z,5.24
2017-05-25T05:58:01.556Z,4.76
2017-05-25T06:00:29.893Z,4.78
2017-05-25T06:02:58.238Z,4.50
2017-05-25T06:05:26.626Z,5.70
2017-05-25T06:07:54.944Z,5.62
2017-05-25T06:10:23.265Z,6.30
2017-05-25T06:12:51.597Z,7.44
2017-05-25T06:15:19.909Z,5.70
2017-05-25T06:17:48.247Z,6.76
2017-05-25T06:20:16.567Z,7.96
2017-05-25T06:22:44.916Z,6.30
2017-05-25T06:25:13.225Z,7.46
2017-05-25T06:27:41.536Z,6.40
2017-05-25T06:30:09.864Z,6.12
2017-05-25T06:32:38.174Z,7.42
2017-05-25T06:35:06.508Z,6.74
2017-05-25T06:37:34.820Z,7.16
2017-05-25T06:40:03.180Z,5.48
2017-05-25T06:42:31.493Z,6.36
2017-05-25T06:44:59.818Z,5.60
2017-05-25T06:47:28.164Z,6.32
2017-05-25T06:49:56.492Z,6.68
2017-05-25T06:52:24.821Z,6.48
2017-05-25T06:54:52.368Z,6.90
2017-05-25T06:57:20.718Z,6.48
2017-05-25T06:59:49.028Z,6.32
2017-05-25T07:02:17.339Z,5.50
2017-05-25T07:04:45.668Z,5.56
2017-05-25T07:07:14.077Z,5.62
2017-05-25T07:09:42.504Z,5.66
2017-05-25T07:12:10.830Z,4.94
2017-05-25T07:14:39.174Z,5.28
2017-05-25T07:17:07.488Z,5.94
2017-05-25T07:19:35.796Z,5.80
2017-05-25T07:22:04.153Z,6.90
2017-05-25T07:24:32.488Z,6.20
2017-05-25T07:27:00.867Z,5.86
2017-05-25T07:29:30.048Z,5.78
2017-05-25T07:31:58.425Z,5.82
2017-05-25T07:34:26.740Z,6.10
2017-05-25T07:36:55.056Z,7.76
2017-05-25T07:39:23.397Z,6.40
2017-05-25T07:41:51.719Z,7.24
2017-05-25T07:44:20.045Z,5.10
2017-05-25T07:46:48.368Z,5.68
2017-05-25T07:49:16.709Z,5.00
2017-05-25T07:51:45.033Z,6.38
2017-05-25T07:54:13.350Z,6.38
2017-05-25T07:56:41.677Z,7.98
2017-05-25T07:59:09.992Z,6.08
2017-05-25T08:01:38.331Z,7.12
2017-05-25T08:04:05.880Z,6.22
2017-05-25T08:06:34.228Z,6.22
2017-05-25T08:09:02.573Z,5.98
2017-05-25T08:11:30.887Z,6.50
2017-05-25T08:13:59.228Z,8.42
2017-05-25T08:16:27.580Z,8.26
2017-05-25T08:18:55.919Z,6.40
2017-05-25T08:21:24.228Z,8.42
2017-05-25T08:23:52.595Z,7.90
2017-05-25T08:26:20.923Z,8.16
2017-05-25T08:28:49.283Z,7.50
2017-05-25T08:31:17.636Z,8.40
2017-05-25T08:33:45.949Z,6.64
2017-05-25T08:36:14.295Z,7.54
2017-05-25T08:38:42.611Z,6.28
2017-05-25T08:41:10.952Z,7.96
2017-05-25T08:43:39.279Z,6.18
2017-05-25T08:46:07.613Z,6.34
2017-05-25T08:48:35.936Z,6.54
2017-05-25T08:51:04.266Z,6.56
2017-05-25T08:53:32.588Z,6.94
2017-05-25T08:56:00.926Z,8.60
2017-05-25T08:58:29.304Z,8.66
2017-05-25T09:00:57.612Z,8.00
2017-05-25T09:03:25.984Z,7.40
2017-05-25T09:05:54.304Z,7.88
2017-05-25T09:08:22.641Z,7.92
2017-05-25T09:10:50.965Z,6.74
2017-05-25T09:13:19.337Z,9.02
2017-05-25T09:15:47.665Z,7.58
2017-05-25T09:18:16.023Z,7.66
2017-05-25T09:20:44.379Z,7.38
2017-05-25T09:23:12.696Z,6.70
2017-05-25T09:25:41.040Z,6.92
2017-05-25T09:28:09.368Z,6.24
2017-05-25T09:30:37.718Z,5.82
2017-05-25T09:33:06.022Z,5.62
2017-05-25T09:35:34.791Z,4.92
2017-05-25T09:38:03.323Z,4.32
2017-05-25T09:40:31.620Z,4.92
2017-05-25T09:42:59.951Z,5.34
2017-05-25T09:45:28.272Z,4.70
2017-05-25T09:47:56.651Z,5.52
2017-05-25T09:50:24.961Z,3.84
2017-05-25T09:52:53.279Z,5.22
2017-05-25T09:55:21.616Z,3.90
2017-05-25T09:57:49.957Z,4.36
2017-05-25T10:00:18.293Z,4.50
2017-05-25T10:02:46.607Z,3.96
2017-05-25T10:05:14.946Z,3.02
2017-05-25T10:07:43.257Z,2.56
2017-05-25T10:10:11.626Z,4.48
2017-05-25T10:12:39.945Z,9.32
2017-05-25T10:15:08.250Z,5.68
2017-05-25T10:17:36.652Z,15.86
2017-05-25T10:20:04.977Z,13.68
2017-05-25T10:22:33.321Z,5.18
2017-05-25T10:25:01.643Z,15.42
2017-05-25T10:27:30.032Z,12.06
2017-05-25T10:29:58.352Z,4.94
2017-05-25T10:32:26.701Z,4.80
2017-05-25T10:34:55.032Z,3.18
2017-05-25T10:37:23.367Z,3.32
2017-05-25T10:39:51.703Z,2.58
2017-05-25T10:42:20.037Z,1.90
2017-05-25T10:44:48.415Z,1.70
2017-05-25T10:47:16.739Z,1.54
2017-05-25T10:49:45.073Z,1.40
2017-05-25T10:52:13.383Z,1.60
2017-05-25T10:54:41.772Z,1.96
2017-05-25T10:57:10.080Z,1.36
2017-05-25T10:59:38.419Z,1.84
2017-05-25T11:02:06.757Z,1.50
2017-05-25T11:04:35.084Z,1.58
2017-05-25T11:07:03.415Z,1.90
2017-05-25T11:09:31.735Z,1.58
2017-05-25T11:12:00.067Z,1.36
2017-05-25T11:14:28.388Z,1.08
2017-05-25T11:16:56.745Z,1.64
2017-05-25T11:19:25.062Z,1.20
2017-05-25T11:21:53.373Z,0.98
2017-05-25T11:24:21.708Z,1.18
2017-05-25T11:26:50.030Z,1.10
2017-05-25T11:29:18.364Z,1.34
2017-05-25T11:31:46.677Z,1.46
2017-05-25T11:34:15.012Z,1.16
2017-05-25T11:36:43.324Z,0.82
2017-05-25T11:39:11.672Z,1.40
2017-05-25T11:41:39.996Z,0.98
2017-05-25T11:44:08.311Z,0.82
2017-05-25T11:46:36.694Z,1.06
2017-05-25T11:49:05.057Z,1.32
2017-05-25T11:51:33.389Z,0.98
2017-05-25T11:54:01.716Z,1.26
2017-05-25T11:56:30.060Z,1.48
2017-05-25T11:58:58.377Z,1.14
2017-05-25T12:01:26.742Z,3.42
2017-05-25T12:03:55.079Z,2.42
2017-05-25T12:06:23.400Z,0.90
2017-05-25T12:08:51.724Z,1.08
2017-05-25T12:11:20.052Z,1.26
2017-05-25T12:13:48.379Z,1.22
2017-05-25T12:16:16.725Z,1.10
2017-05-25T12:18:45.062Z,1.38
2017-05-25T12:21:13.410Z,1.32
2017-05-25T12:23:41.735Z,1.18
2017-05-25T12:26:10.041Z,1.28
2017-05-25T12:28:38.396Z,1.44
2017-05-25T12:31:06.789Z,1.22
2017-05-25T12:33:35.101Z,1.22
2017-05-25T12:36:03.439Z,1.28
2017-05-25T12:38:31.768Z,1.88
2017-05-25T12:41:00.112Z,1.16
2017-05-25T12:43:28.424Z,1.46
2017-05-25T12:45:56.760Z,1.30
2017-05-25T12:48:25.074Z,1.20
2017-05-25T12:50:53.413Z,0.94
2017-05-25T12:53:21.716Z,1.56
2017-05-25T12:55:50.024Z,0.94
2017-05-25T12:58:18.353Z,1.18
2017-05-25T13:00:46.664Z,2.30
2017-05-25T13:03:15.000Z,1.44
2017-05-25T13:05:43.336Z,1.40
2017-05-25T13:08:11.664Z,1.22
2017-05-25T13:10:39.986Z,2.24
2017-05-25T13:13:08.328Z,1.62
2017-05-25T13:15:36.659Z,1.64
2017-05-25T13:18:04.985Z,1.44
2017-05-25T13:20:33.311Z,1.26
2017-05-25T13:23:01.620Z,1.36
2017-05-25T13:25:30.006Z,1.00
2017-05-25T13:27:58.332Z,1.14
2017-05-25T13:30:26.676Z,1.30
2017-05-25T13:32:54.997Z,1.10
2017-05-25T13:35:23.356Z,1.10
2017-05-25T13:37:51.665Z,1.10
2017-05-25T13:40:19.968Z,1.26
2017-05-25T13:42:48.305Z,1.24
2017-05-25T13:45:16.614Z,0.68
2017-05-25T13:47:44.947Z,1.26
2017-05-25T13:50:13.262Z,0.90
2017-05-25T13:52:41.601Z,1.10
2017-05-25T13:55:09.921Z,1.00
2017-05-25T13:57:38.308Z,1.00
2017-05-25T14:00:06.620Z,0.88
2017-05-25T14:02:34.970Z,0.92
2017-05-25T14:05:03.303Z,1.10
2017-05-25T14:07:31.617Z,1.10
2017-05-25T14:09:59.945Z,0.86
2017-05-25T14:12:28.270Z,1.06
2017-05-25T14:14:56.599Z,1.08
2017-05-25T14:17:24.915Z,1.26
2017-05-25T14:19:53.264Z,1.26
2017-05-25T14:22:21.578Z,1.00
2017-05-25T14:24:49.904Z,1.12
2017-05-25T14:27:18.242Z,1.20
2017-05-25T14:29:46.588Z,1.38
2017-05-25T14:32:14.917Z,1.20
2017-05-25T14:34:43.240Z,1.14
2017-05-25T14:37:11.580Z,0.94
2017-05-25T14:39:39.905Z,1.00
2017-05-25T14:42:08.249Z,1.38
2017-05-25T14:44:36.563Z,1.10
2017-05-25T14:47:04.884Z,1.60
2017-05-25T14:49:33.216Z,1.02
2017-05-25T14:52:01.528Z,1.08
2017-05-25T14:54:29.863Z,0.78
2017-05-25T14:56:58.179Z,1.10
2017-05-25T14:59:26.516Z,1.10
2017-05-25T15:01:54.835Z,0.96
2017-05-25T15:04:23.169Z,1.30
2017-05-25T15:06:51.491Z,1.00
2017-05-25T15:09:19.813Z,1.78
2017-05-25T15:11:48.158Z,1.04
2017-05-25T15:14:16.462Z,0.86
2017-05-25T15:16:44.792Z,1.28
2017-05-25T15:19:13.121Z,1.16
2017-05-25T15:21:41.451Z,1.18
2017-05-25T15:24:09.782Z,1.60
2017-05-25T15:26:38.145Z,1.20
2017-05-25T15:29:06.461Z,1.32
2017-05-25T15:31:34.789Z,1.10
2017-05-25T15:34:03.132Z,1.28
2017-05-25T15:36:31.443Z,1.38
2017-05-25T15:38:59.776Z,1.44
2017-05-25T15:41:28.131Z,1.22
2017-05-25T15:43:56.466Z,1.10
2017-05-25T15:46:24.772Z,1.24
2017-05-25T15:48:53.112Z,1.10
2017-05-25T15:51:21.433Z,1.30
2017-05-25T15:53:49.784Z,1.44
2017-05-25T15:56:18.121Z,1.32
2017-05-25T15:58:46.452Z,1.40
2017-05-25T16:01:14.773Z,1.32
2017-05-25T16:03:43.097Z,1.38
2017-05-25T16:06:11.423Z,1.50
2017-05-25T16:08:39.740Z,1.22
2017-05-25T16:11:08.093Z,1.22
2017-05-25T16:13:36.404Z,1.28
2017-05-25T16:16:04.738Z,1.20
2017-05-25T16:18:33.056Z,1.68
2017-05-25T16:21:01.397Z,1.90
2017-05-25T16:23:29.735Z,1.14
2017-05-25T16:25:58.036Z,1.32
2017-05-25T16:28:26.376Z,1.42
2017-05-25T16:30:54.685Z,1.40
2017-05-25T16:33:23.027Z,1.20
2017-05-25T16:35:51.351Z,1.60
2017-05-25T16:38:19.691Z,1.66
2017-05-25T16:40:48.004Z,1.58
2017-05-25T16:43:16.337Z,1.20
2017-05-25T16:45:44.654Z,1.14
2017-05-25T16:48:12.984Z,1.56
2017-05-25T16:50:41.299Z,1.92
2017-05-25T16:53:09.623Z,1.32
2017-05-25T16:55:37.956Z,1.50
2017-05-25T16:58:06.273Z,1.40
2017-05-25T17:00:34.596Z,1.68
2017-05-25T17:03:02.911Z,1.64
2017-05-25T17:05:31.256Z,1.64
2017-05-25T17:07:59.555Z,1.74
2017-05-25T17:10:27.896Z,1.36
2017-05-25T17:12:56.224Z,1.90
2017-05-25T17:15:24.547Z,1.76
2017-05-25T17:17:52.893Z,1.84
2017-05-25T17:20:21.219Z,1.68
2017-05-25T17:22:49.552Z,1.48
2017-05-25T17:25:17.855Z,1.46
2017-05-25T17:27:46.196Z,1.14
2017-05-25T17:30:14.996Z,1.58
2017-05-25T17:32:43.448Z,1.28
2017-05-25T17:35:11.813Z,1.66
2017-05-25T17:37:40.134Z,1.76
2017-05-25T17:40:08.567Z,1.50
2017-05-25T17:42:36.963Z,1.32
2017-05-25T17:45:05.390Z,1.82
2017-05-25T17:47:33.789Z,1.52
2017-05-25T17:50:02.234Z,1.70
2017-05-25T17:52:30.656Z,1.64
2017-05-25T17:54:59.100Z,1.50
2017-05-25T17:57:27.516Z,1.52
2017-05-25T17:59:55.915Z,1.52
2017-05-25T18:02:24.256Z,1.76
2017-05-25T18:04:52.560Z,1.40
2017-05-25T18:07:20.883Z,1.68
2017-05-25T18:09:49.185Z,1.82
2017-05-25T18:12:17.515Z,2.14
2017-05-25T18:14:45.832Z,1.60
2017-05-25T18:17:14.171Z,1.70
2017-05-25T18:19:42.504Z,1.60
2017-05-25T18:22:10.862Z,2.10
2017-05-25T18:24:39.177Z,1.50
2017-05-25T18:27:07.491Z,1.80
2017-05-25T18:29:35.825Z,2.12
2017-05-25T18:32:04.148Z,1.70
2017-05-25T18:34:32.484Z,1.76
2017-05-25T18:37:00.806Z,1.84
2017-05-25T18:39:29.140Z,1.68
2017-05-25T18:41:57.457Z,1.88
2017-05-25T18:44:25.786Z,1.60
2017-05-25T18:46:54.108Z,1.60
2017-05-25T18:49:22.470Z,1.52
2017-05-25T18:51:50.788Z,1.88
2017-05-25T18:54:19.107Z,1.72
2017-05-25T18:56:47.448Z,1.64
2017-05-25T18:59:15.794Z,1.58
2017-05-25T19:01:44.127Z,1.44
2017-05-25T19:04:12.456Z,1.10
2017-05-25T19:06:40.780Z,1.46
2017-05-25T19:09:09.123Z,1.58
2017-05-25T19:11:37.448Z,1.42
2017-05-25T19:14:04.984Z,1.70
2017-05-25T19:16:33.316Z,1.74
2017-05-25T19:19:00.848Z,2.16
2017-05-25T19:21:29.162Z,2.06
2017-05-25T19:23:57.493Z,2.40
2017-05-25T19:26:25.804Z,2.12
2017-05-25T19:28:54.128Z,2.06
2017-05-25T19:31:22.443Z,1.80
2017-05-25T19:33:50.763Z,2.18
2017-05-25T19:36:19.064Z,2.00
2017-05-25T19:38:47.391Z,2.30
2017-05-25T19:41:15.691Z,2.38
2017-05-25T19:43:44.042Z,2.34
2017-05-25T19:46:12.349Z,2.16
2017-05-25T19:48:40.660Z,1.50
2017-05-25T19:51:08.992Z,1.86
2017-05-25T19:53:37.291Z,1.74
2017-05-25T19:56:05.616Z,1.94
2017-05-25T19:58:33.919Z,1.64
2017-05-25T20:01:02.240Z,1.96
2017-05-25T20:03:30.535Z,1.94
2017-05-25T20:05:58.866Z,1.76
2017-05-25T20:08:27.162Z,2.02
2017-05-25T20:10:55.491Z,1.44
2017-05-25T20:13:23.788Z,1.58
2017-05-25T20:15:52.164Z,1.56
2017-05-25T20:18:20.567Z,1.74
2017-05-25T20:20:48.968Z,2.06
2017-05-25T20:23:17.283Z,1.80
2017-05-25T20:25:45.590Z,1.90
2017-05-25T20:28:13.933Z,1.44
2017-05-25T20:30:42.227Z,2.10
2017-05-25T20:33:10.538Z,1.74
2017-05-25T20:35:38.859Z,1.62
2017-05-25T20:38:07.170Z,1.48
2017-05-25T20:40:35.499Z,1.88
2017-05-25T20:43:03.795Z,2.18
2017-05-25T20:45:32.119Z,2.06
2017-05-25T20:48:00.448Z,2.68
2017-05-25T20:50:28.768Z,2.40
2017-05-25T20:52:57.067Z,2.20
2017-05-25T20:55:25.384Z,2.22
2017-05-25T20:57:53.683Z,1.88
2017-05-25T21:00:22.024Z,2.48
2017-05-25T21:02:50.324Z,1.72
2017-05-25T21:05:17.864Z,2.42
2017-05-25T21:07:46.193Z,1.94
2017-05-25T21:10:14.496Z,1.72
2017-05-25T21:12:42.812Z,1.90
2017-05-25T21:15:11.112Z,1.82
2017-05-25T21:17:39.437Z,2.04
2017-05-25T21:20:07.755Z,2.08
2017-05-25T21:22:36.080Z,1.98
2017-05-25T21:25:04.375Z,1.94
2017-05-25T21:27:32.704Z,1.64
2017-05-25T21:30:00.999Z,2.42
2017-05-25T21:32:29.305Z,1.50
2017-05-25T21:34:57.624Z,2.10
2017-05-25T21:37:25.924Z,2.32
2017-05-25T21:39:54.244Z,1.90
2017-05-25T21:42:22.542Z,2.16
2017-05-25T21:44:50.879Z,2.72
2017-05-25T21:47:19.177Z,2.52
2017-05-25T21:49:47.475Z,2.10
2017-05-25T21:52:15.800Z,1.48
2017-05-25T21:54:44.098Z,1.78
2017-05-25T21:57:12.411Z,1.96
2017-05-25T21:59:40.711Z,1.64
2017-05-25T22:02:09.051Z,1.68
2017-05-25T22:04:37.356Z,2.44
2017-05-25T22:07:05.658Z,2.48
2017-05-25T22:09:33.975Z,2.08
2017-05-25T22:12:02.280Z,2.02
2017-05-25T22:14:30.599Z,2.18
2017-05-25T22:16:58.895Z,2.70
2017-05-25T22:19:27.223Z,2.38
2017-05-25T22:21:55.532Z,1.98
2017-05-25T22:24:23.867Z,1.94
2017-05-25T22:26:52.169Z,3.20
2017-05-25T22:29:20.474Z,1.82
2017-05-25T22:31:48.792Z,1.98
2017-05-25T22:34:17.104Z,1.52
2017-05-25T22:36:45.421Z,2.34
2017-05-25T22:39:13.721Z,2.18
2017-05-25T22:41:42.035Z,2.72
2017-05-25T22:44:10.345Z,2.32
2017-05-25T22:46:38.672Z,2.66
2017-05-25T22:49:06.966Z,1.78
2017-05-25T22:51:35.270Z,1.92
2017-05-25T22:54:03.588Z,2.40
2017-05-25T22:56:31.892Z,2.32
2017-05-25T22:59:00.215Z,2.00
2017-05-25T23:01:28.716Z,2.76
2017-05-25T23:03:57.035Z,2.44
2017-05-25T23:06:25.343Z,3.00
2017-05-25T23:08:53.700Z,2.62
2017-05-25T23:11:22.019Z,1.82
2017-05-25T23:13:50.325Z,2.86
2017-05-25T23:16:18.655Z,2.20
2017-05-25T23:18:46.962Z,2.66
2017-05-25T23:21:15.292Z,3.06
2017-05-25T23:23:43.592Z,2.20
2017-05-25T23:26:11.918Z,2.92
2017-05-25T23:28:40.221Z,3.70
2017-05-25T23:31:08.554Z,3.62
2017-05-25T23:33:36.859Z,3.18
2017-05-25T23:36:05.207Z,2.68
2017-05-25T23:38:33.504Z,2.60
2017-05-25T23:41:01.811Z,2.54
2017-05-25T23:43:30.137Z,2.52
2017-05-25T23:45:58.442Z,3.08
2017-05-25T23:48:26.775Z,2.48
2017-05-25T23:50:55.072Z,2.84
2017-05-25T23:53:23.395Z,2.82
2017-05-25T23:55:51.702Z,3.36
2017-05-25T23:58:20.020Z,2.86
